createdAt,value
2019-03-09T00:00:34.839Z,73.27
2019-03-09T00:01:32.617Z,73.19
2019-03-09T00:02:10.100Z,72.98
2019-03-09T00:02:46.241Z,72.83
2019-03-09T00:03:22.338Z,72.80
2019-03-09T00:03:58.532Z,72.71
2019-03-09T00:04:36.161Z,72.63
2019-03-09T00:05:12.235Z,72.49
2019-03-09T00:05:48.320Z,72.40
2019-03-09T00:06:24.470Z,72.46
2019-03-09T00:07:00.624Z,72.38
2019-03-09T00:07:36.811Z,72.18
2019-03-09T00:08:12.882Z,71.94
2019-03-09T00:08:48.972Z,71.60
2019-03-09T00:09:25.075Z,71.60
2019-03-09T00:10:01.193Z,71.67
2019-03-09T00:10:37.418Z,71.67
2019-03-09T00:11:13.743Z,71.65
2019-03-09T00:11:49.870Z,71.67
2019-03-09T00:12:25.945Z,71.70
2019-03-09T00:13:02.061Z,71.71
2019-03-09T00:13:38.140Z,71.71
2019-03-09T00:14:14.309Z,71.72
2019-03-09T00:14:50.386Z,71.72
2019-03-09T00:15:26.462Z,71.69
2019-03-09T00:16:02.605Z,71.48
2019-03-09T00:16:38.748Z,71.48
2019-03-09T00:17:14.876Z,71.54
2019-03-09T00:17:50.947Z,71.60
2019-03-09T00:18:26.956Z,71.63
2019-03-09T00:19:03.022Z,71.65
2019-03-09T00:19:39.165Z,71.72
2019-03-09T00:20:15.254Z,71.73
2019-03-09T00:20:51.571Z,71.76
2019-03-09T00:21:28.022Z,71.78
2019-03-09T00:22:04.157Z,71.81
2019-03-09T00:22:41.557Z,71.69
2019-03-09T00:23:24.721Z,71.92
2019-03-09T00:24:18.066Z,72.20
2019-03-09T00:24:58.679Z,72.20
2019-03-09T00:25:38.079Z,72.25
2019-03-09T00:31:16.403Z,72.49
2019-03-09T00:32:17.357Z,72.52
2019-03-09T00:33:05.588Z,72.39
2019-03-09T00:33:42.082Z,72.43
2019-03-09T00:34:18.239Z,72.42
2019-03-09T00:34:54.329Z,72.38
2019-03-09T00:35:31.447Z,72.31
2019-03-09T00:36:07.562Z,72.13
2019-03-09T00:36:43.762Z,72.13
2019-03-09T00:37:20.142Z,72.18
2019-03-09T00:37:56.276Z,72.12
2019-03-09T00:38:32.742Z,71.99
2019-03-09T00:39:08.999Z,71.90
2019-03-09T00:39:45.069Z,71.70
2019-03-09T00:40:21.231Z,71.45
2019-03-09T00:40:57.377Z,71.24
2019-03-09T00:41:33.478Z,70.87
2019-03-09T00:42:09.541Z,70.59
2019-03-09T00:42:45.714Z,70.44
2019-03-09T00:43:21.829Z,70.20
2019-03-09T00:43:57.941Z,70.11
2019-03-09T00:44:34.021Z,69.98
2019-03-09T00:45:10.277Z,70.10
2019-03-09T00:45:46.357Z,70.10
2019-03-09T00:46:22.801Z,69.55
2019-03-09T00:46:58.871Z,69.31
2019-03-09T00:47:35.081Z,69.04
2019-03-09T00:48:11.218Z,68.84
2019-03-09T00:48:47.443Z,68.57
2019-03-09T00:49:23.559Z,68.41
2019-03-09T00:49:59.657Z,68.15
2019-03-09T00:50:35.741Z,68.08
2019-03-09T00:51:12.298Z,68.08
2019-03-09T00:51:48.513Z,67.24
2019-03-09T00:52:24.575Z,67.00
2019-03-09T00:53:00.726Z,66.93
2019-03-09T00:53:36.754Z,66.81
2019-03-09T00:54:15.112Z,66.60
2019-03-09T00:54:50.778Z,66.30
2019-03-09T00:55:27.124Z,65.37
2019-03-09T00:56:03.473Z,65.37
2019-03-09T00:56:39.629Z,65.40
2019-03-09T00:57:15.740Z,65.97
2019-03-09T00:57:51.956Z,65.97
2019-03-09T00:58:28.098Z,65.09
2019-03-09T00:59:04.325Z,65.02
2019-03-09T00:59:40.439Z,65.02
2019-03-09T01:00:20.833Z,65.14
2019-03-09T01:00:57.003Z,65.14
2019-03-09T01:01:33.159Z,64.55
2019-03-09T01:02:09.387Z,64.17
2019-03-09T01:02:45.601Z,64.17
2019-03-09T01:03:21.759Z,64.39
2019-03-09T01:03:58.465Z,64.49
2019-03-09T01:04:35.448Z,64.44
2019-03-09T01:05:12.563Z,64.49
2019-03-09T01:05:48.991Z,64.83
2019-03-09T01:06:25.512Z,64.88
2019-03-09T01:07:01.699Z,64.88
2019-03-09T01:07:37.810Z,64.98
2019-03-09T01:08:14.065Z,65.05
2019-03-09T01:08:50.163Z,65.24
2019-03-09T01:09:26.158Z,65.25
2019-03-09T01:10:02.300Z,65.36
2019-03-09T01:10:38.424Z,65.36
2019-03-09T01:11:14.572Z,65.26
2019-03-09T01:11:50.811Z,65.26
2019-03-09T01:12:27.015Z,65.32
2019-03-09T01:13:03.120Z,65.02
2019-03-09T01:13:39.241Z,65.02
2019-03-09T01:14:15.331Z,65.37
2019-03-09T01:14:51.618Z,65.37
2019-03-09T01:15:27.737Z,65.13
2019-03-09T01:16:03.921Z,65.09
2019-03-09T01:16:40.076Z,64.79
2019-03-09T01:17:16.132Z,64.53
2019-03-09T01:17:52.297Z,64.26
2019-03-09T01:18:28.366Z,63.95
2019-03-09T01:19:04.512Z,63.71
2019-03-09T01:19:40.662Z,63.50
2019-03-09T01:20:17.724Z,63.35
2019-03-09T01:20:53.898Z,63.06
2019-03-09T01:21:30.004Z,62.86
2019-03-09T01:22:06.064Z,62.91
2019-03-09T01:22:42.238Z,62.96
2019-03-09T01:23:18.404Z,62.75
2019-03-09T01:23:54.527Z,62.48
2019-03-09T01:24:30.705Z,62.11
2019-03-09T01:25:07.198Z,61.64
2019-03-09T01:25:43.343Z,61.09
2019-03-09T01:26:19.456Z,60.43
2019-03-09T01:26:55.536Z,60.28
2019-03-09T01:27:31.767Z,60.15
2019-03-09T01:28:08.155Z,60.14
2019-03-09T01:28:44.293Z,59.91
2019-03-09T01:29:20.572Z,59.67
2019-03-09T01:29:56.705Z,59.51
2019-03-09T01:30:32.892Z,59.53
2019-03-09T01:31:09.046Z,59.52
2019-03-09T01:31:45.280Z,59.44
2019-03-09T01:32:21.576Z,59.30
2019-03-09T01:32:57.702Z,58.99
2019-03-09T01:33:33.849Z,58.62
2019-03-09T01:34:09.889Z,58.32
2019-03-09T01:34:46.021Z,58.22
2019-03-09T01:35:22.242Z,58.06
2019-03-09T01:35:58.455Z,57.98
2019-03-09T01:36:34.624Z,57.76
2019-03-09T01:37:10.782Z,57.72
2019-03-09T01:37:46.972Z,57.56
2019-03-09T01:38:23.013Z,57.40
2019-03-09T01:38:59.093Z,57.48
2019-03-09T01:39:35.184Z,57.75
2019-03-09T01:40:12.204Z,57.77
2019-03-09T01:40:48.615Z,57.71
2019-03-09T01:41:24.671Z,57.72
2019-03-09T01:42:00.715Z,57.71
2019-03-09T01:42:36.864Z,57.56
2019-03-09T01:43:13.898Z,57.41
2019-03-09T01:43:49.997Z,57.23
2019-03-09T01:44:26.021Z,56.97
2019-03-09T01:45:03.982Z,56.88
2019-03-09T01:45:41.654Z,56.73
2019-03-09T01:46:19.407Z,56.70
2019-03-09T01:46:57.362Z,56.62
2019-03-09T01:47:42.369Z,56.50
2019-03-09T01:48:19.799Z,56.38
2019-03-09T01:48:59.695Z,56.25
2019-03-09T01:49:37.460Z,56.20
2019-03-09T01:50:15.708Z,56.25
2019-03-09T01:50:57.138Z,56.04
2019-03-09T01:51:37.579Z,55.83
2019-03-09T01:52:15.335Z,55.51
2019-03-09T01:52:55.260Z,55.41
2019-03-09T01:53:36.937Z,55.22
2019-03-09T01:54:12.449Z,55.06
2019-03-09T01:54:48.990Z,54.96
2019-03-09T01:55:25.374Z,54.75
2019-03-09T01:56:01.772Z,54.52
2019-03-09T01:56:38.009Z,54.38
2019-03-09T01:57:14.198Z,54.24
2019-03-09T01:57:50.549Z,54.12
2019-03-09T01:58:26.767Z,54.01
2019-03-09T01:59:02.959Z,53.90
2019-03-09T01:59:39.030Z,53.71
2019-03-09T02:00:15.413Z,53.61
2019-03-09T02:00:51.779Z,53.41
2019-03-09T02:01:28.019Z,53.39
2019-03-09T02:02:04.233Z,53.42
2019-03-09T02:02:40.486Z,53.37
2019-03-09T02:03:16.791Z,53.29
2019-03-09T02:03:52.862Z,53.15
2019-03-09T02:04:29.222Z,53.06
2019-03-09T02:05:05.460Z,52.95
2019-03-09T02:05:41.788Z,52.73
2019-03-09T02:06:18.104Z,52.53
2019-03-09T02:06:54.148Z,52.56
2019-03-09T02:07:30.423Z,52.50
2019-03-09T02:08:06.568Z,52.43
2019-03-09T02:08:42.689Z,52.46
2019-03-09T02:09:18.966Z,52.41
2019-03-09T02:09:55.128Z,52.38
2019-03-09T02:10:31.439Z,52.38
2019-03-09T02:11:07.644Z,52.47
2019-03-09T02:11:43.817Z,52.43
2019-03-09T02:12:20.008Z,52.25
2019-03-09T02:12:56.178Z,52.07
2019-03-09T02:13:32.310Z,52.15
2019-03-09T02:14:08.410Z,52.25
2019-03-09T02:14:44.648Z,52.30
2019-03-09T02:15:20.923Z,52.18
2019-03-09T02:15:57.209Z,52.12
2019-03-09T02:16:33.408Z,52.05
2019-03-09T02:17:09.462Z,52.04
2019-03-09T02:17:45.740Z,51.93
2019-03-09T02:18:21.865Z,51.75
2019-03-09T02:18:57.974Z,51.68
2019-03-09T02:19:34.026Z,51.67
2019-03-09T02:20:10.603Z,51.59
2019-03-09T02:20:46.853Z,51.61
2019-03-09T02:21:22.925Z,51.58
2019-03-09T02:21:59.414Z,51.47
2019-03-09T02:22:35.499Z,51.30
2019-03-09T02:23:11.537Z,51.25
2019-03-09T02:23:47.918Z,51.31
2019-03-09T02:24:24.176Z,51.41
2019-03-09T02:25:00.474Z,51.26
2019-03-09T02:25:36.620Z,51.07
2019-03-09T02:26:12.998Z,50.82
2019-03-09T02:26:49.466Z,50.98
2019-03-09T02:27:25.816Z,51.01
2019-03-09T02:28:02.031Z,51.11
2019-03-09T02:28:38.253Z,51.16
2019-03-09T02:29:14.717Z,51.18
2019-03-09T02:29:51.016Z,51.03
2019-03-09T02:30:27.394Z,51.12
2019-03-09T02:31:04.563Z,51.16
2019-03-09T02:31:40.777Z,51.28
2019-03-09T02:32:16.984Z,50.95
2019-03-09T02:32:53.430Z,50.95
2019-03-09T02:33:29.745Z,51.04
2019-03-09T02:34:06.096Z,51.19
2019-03-09T02:34:42.845Z,51.43
2019-03-09T02:35:19.045Z,51.41
2019-03-09T02:35:55.277Z,51.24
2019-03-09T02:36:31.544Z,51.19
2019-03-09T02:37:08.244Z,51.41
2019-03-09T02:37:46.824Z,51.29
2019-03-09T02:38:34.866Z,51.30
2019-03-09T02:39:40.631Z,51.35
2019-03-09T02:40:26.945Z,51.21
2019-03-09T02:41:03.742Z,51.09
2019-03-09T02:41:40.001Z,51.05
2019-03-09T02:42:16.608Z,51.00
2019-03-09T02:42:52.936Z,50.88
2019-03-09T02:43:29.411Z,50.76
2019-03-09T02:44:07.664Z,50.65
2019-03-09T02:44:44.216Z,50.64
2019-03-09T02:45:22.126Z,50.58
2019-03-09T02:45:58.770Z,50.46
2019-03-09T02:46:35.580Z,50.37
2019-03-09T02:47:12.115Z,50.31
2019-03-09T02:47:49.102Z,50.11
2019-03-09T02:48:28.502Z,50.10
2019-03-09T02:49:04.833Z,49.97
2019-03-09T02:49:41.213Z,49.97
2019-03-09T02:50:17.764Z,49.92
2019-03-09T02:50:57.509Z,49.91
2019-03-09T02:51:33.773Z,49.95
2019-03-09T02:52:13.433Z,49.79
2019-03-09T02:52:53.609Z,49.62
2019-03-09T02:53:30.526Z,49.67
2019-03-09T02:54:07.333Z,49.69
2019-03-09T02:54:46.474Z,49.54
2019-03-09T02:55:22.767Z,49.46
2019-03-09T02:55:59.237Z,49.20
2019-03-09T02:56:36.188Z,49.00
2019-03-09T02:57:12.971Z,48.97
2019-03-09T02:57:49.247Z,49.03
2019-03-09T02:58:25.405Z,48.92
2019-03-09T02:59:01.644Z,48.91
2019-03-09T02:59:37.902Z,48.87
2019-03-09T03:00:15.925Z,48.78
2019-03-09T03:01:10.923Z,48.75
2019-03-09T03:02:17.693Z,48.66
2019-03-09T03:02:59.630Z,48.51
2019-03-09T03:03:35.812Z,48.57
2019-03-09T03:04:12.158Z,48.44
2019-03-09T03:04:48.316Z,48.49
2019-03-09T03:05:24.489Z,48.46
2019-03-09T03:06:00.787Z,48.25
2019-03-09T03:06:36.850Z,48.11
2019-03-09T03:07:13.030Z,48.08
2019-03-09T03:07:49.194Z,48.07
2019-03-09T03:08:25.344Z,48.01
2019-03-09T03:09:01.581Z,47.90
2019-03-09T03:09:37.770Z,47.82
2019-03-09T03:10:14.074Z,47.68
2019-03-09T03:10:50.325Z,47.62
2019-03-09T03:11:26.462Z,47.64
2019-03-09T03:12:02.717Z,47.59
2019-03-09T03:12:38.910Z,47.51
2019-03-09T03:13:15.045Z,46.91
2019-03-09T03:13:51.947Z,46.16
2019-03-09T03:14:28.181Z,45.62
2019-03-09T03:15:04.823Z,46.00
2019-03-09T03:15:40.848Z,46.13
2019-03-09T03:16:17.086Z,46.21
2019-03-09T03:16:53.123Z,46.15
2019-03-09T03:17:29.282Z,46.07
2019-03-09T03:18:05.569Z,45.87
2019-03-09T03:18:41.729Z,45.47
2019-03-09T03:19:17.845Z,45.34
2019-03-09T03:19:53.843Z,45.27
2019-03-09T03:20:30.364Z,45.31
2019-03-09T03:21:06.573Z,45.35
2019-03-09T03:21:45.156Z,45.47
2019-03-09T03:22:20.469Z,45.61
2019-03-09T03:22:56.831Z,45.68
2019-03-09T03:23:33.149Z,45.83
2019-03-09T03:24:09.249Z,45.86
2019-03-09T03:24:45.377Z,45.87
2019-03-09T03:25:21.712Z,45.84
2019-03-09T03:25:57.897Z,45.74
2019-03-09T03:26:33.962Z,45.68
2019-03-09T03:27:10.054Z,45.12
2019-03-09T03:27:46.130Z,45.00
2019-03-09T03:28:22.242Z,45.07
2019-03-09T03:28:58.373Z,45.24
2019-03-09T03:29:34.492Z,45.16
2019-03-09T03:30:10.589Z,44.30
2019-03-09T03:30:46.769Z,44.02
2019-03-09T03:31:22.962Z,43.74
2019-03-09T03:31:59.168Z,43.43
2019-03-09T03:32:36.920Z,43.63
2019-03-09T03:33:13.070Z,43.79
2019-03-09T03:33:49.203Z,43.79
2019-03-09T03:34:25.326Z,43.86
2019-03-09T03:35:01.673Z,44.02
2019-03-09T03:35:37.840Z,43.95
2019-03-09T03:36:13.984Z,43.86
2019-03-09T03:36:51.009Z,43.95
2019-03-09T03:37:27.163Z,44.02
2019-03-09T03:38:03.329Z,44.07
2019-03-09T03:38:39.463Z,43.67
2019-03-09T03:39:15.598Z,43.24
2019-03-09T03:39:51.847Z,43.18
2019-03-09T03:40:27.996Z,42.96
2019-03-09T03:41:04.104Z,42.22
2019-03-09T03:41:40.325Z,42.01
2019-03-09T03:42:16.685Z,41.94
2019-03-09T03:42:52.837Z,41.97
2019-03-09T03:43:28.961Z,41.85
2019-03-09T03:44:05.281Z,41.54
2019-03-09T03:44:47.197Z,41.41
2019-03-09T03:45:23.354Z,41.68
2019-03-09T03:45:59.526Z,41.57
2019-03-09T03:46:35.626Z,41.53
2019-03-09T03:47:11.774Z,41.39
2019-03-09T03:47:48.212Z,41.39
2019-03-09T03:48:24.672Z,41.28
2019-03-09T03:49:00.791Z,41.17
2019-03-09T03:49:36.956Z,40.82
2019-03-09T03:50:13.142Z,40.59
2019-03-09T03:50:49.312Z,40.57
2019-03-09T03:51:28.274Z,40.55
2019-03-09T03:52:04.426Z,40.12
2019-03-09T03:52:40.512Z,40.09
2019-03-09T03:53:16.724Z,40.23
2019-03-09T03:53:52.860Z,40.31
2019-03-09T03:54:28.966Z,40.61
2019-03-09T03:55:05.070Z,40.75
2019-03-09T03:55:41.264Z,40.87
2019-03-09T03:56:17.338Z,40.97
2019-03-09T03:56:53.499Z,40.88
2019-03-09T03:57:29.567Z,40.67
2019-03-09T03:58:05.711Z,40.46
2019-03-09T03:58:41.786Z,40.36
2019-03-09T03:59:17.823Z,40.51
2019-03-09T03:59:54.041Z,40.59
2019-03-09T04:00:30.280Z,40.58
2019-03-09T04:01:06.530Z,40.95
2019-03-09T04:01:42.819Z,41.06
2019-03-09T04:02:18.894Z,41.23
2019-03-09T04:02:55.115Z,41.46
2019-03-09T04:03:31.173Z,41.28
2019-03-09T04:04:07.352Z,41.19
2019-03-09T04:04:43.506Z,41.11
2019-03-09T04:05:19.613Z,40.63
2019-03-09T04:05:55.873Z,39.94
2019-03-09T04:06:32.026Z,39.76
2019-03-09T04:07:08.318Z,38.64
2019-03-09T04:07:44.759Z,37.66
2019-03-09T04:08:21.464Z,37.51
2019-03-09T04:08:57.737Z,37.20
2019-03-09T04:09:33.846Z,37.06
2019-03-09T04:10:09.928Z,37.22
2019-03-09T04:10:45.957Z,37.63
2019-03-09T04:11:22.051Z,37.71
2019-03-09T04:11:58.274Z,37.99
2019-03-09T04:12:34.396Z,38.07
2019-03-09T04:13:10.544Z,38.00
2019-03-09T04:13:46.820Z,37.83
2019-03-09T04:14:22.943Z,38.18
2019-03-09T04:14:59.195Z,38.66
2019-03-09T04:15:35.355Z,38.77
2019-03-09T04:16:11.392Z,38.75
2019-03-09T04:16:47.516Z,38.75
2019-03-09T04:17:23.704Z,38.93
2019-03-09T04:17:59.839Z,39.22
2019-03-09T04:18:35.933Z,39.26
2019-03-09T04:19:11.969Z,39.29
2019-03-09T04:19:48.144Z,39.38
2019-03-09T04:20:24.208Z,39.86
2019-03-09T04:21:01.958Z,40.31
2019-03-09T04:21:38.186Z,40.48
2019-03-09T04:22:14.251Z,40.66
2019-03-09T04:22:50.517Z,40.77
2019-03-09T04:23:26.795Z,40.90
2019-03-09T04:24:02.848Z,40.84
2019-03-09T04:24:40.249Z,40.58
2019-03-09T04:25:16.385Z,40.13
2019-03-09T04:25:52.455Z,39.67
2019-03-09T04:26:28.730Z,39.53
2019-03-09T04:27:06.018Z,39.19
2019-03-09T04:27:46.219Z,38.33
2019-03-09T04:28:22.347Z,37.92
2019-03-09T04:28:58.546Z,37.79
2019-03-09T04:29:35.183Z,37.75
2019-03-09T04:30:11.397Z,37.74
2019-03-09T04:30:48.504Z,37.69
2019-03-09T04:31:24.595Z,37.25
2019-03-09T04:32:01.867Z,37.10
2019-03-09T04:32:38.079Z,36.92
2019-03-09T04:33:14.750Z,36.85
2019-03-09T04:33:51.476Z,37.15
2019-03-09T04:34:27.754Z,37.33
2019-03-09T04:35:03.965Z,37.52
2019-03-09T04:35:40.049Z,37.73
2019-03-09T04:36:16.074Z,37.99
2019-03-09T04:36:59.921Z,38.20
2019-03-09T04:37:36.062Z,38.56
2019-03-09T04:38:12.137Z,38.00
2019-03-09T04:38:48.274Z,37.52
2019-03-09T04:39:24.366Z,37.02
2019-03-09T04:40:01.375Z,36.84
2019-03-09T04:40:38.168Z,37.00
2019-03-09T04:41:14.414Z,37.20
2019-03-09T04:41:54.647Z,37.63
2019-03-09T04:42:31.060Z,37.81
2019-03-09T04:43:07.722Z,37.93
2019-03-09T04:43:44.240Z,37.90
2019-03-09T04:44:21.083Z,37.87
2019-03-09T04:44:57.487Z,37.88
2019-03-09T04:45:34.182Z,37.96
2019-03-09T04:46:16.424Z,37.96
2019-03-09T04:46:53.079Z,38.11
2019-03-09T04:47:29.441Z,38.37
2019-03-09T04:48:05.653Z,38.52
2019-03-09T04:48:41.903Z,38.53
2019-03-09T04:49:18.204Z,38.55
2019-03-09T04:49:54.301Z,38.55
2019-03-09T04:50:30.529Z,38.68
2019-03-09T04:51:06.851Z,38.51
2019-03-09T04:51:43.403Z,38.52
2019-03-09T04:52:19.768Z,38.57
2019-03-09T04:52:56.204Z,38.90
2019-03-09T04:53:32.556Z,39.06
2019-03-09T04:54:08.808Z,39.43
2019-03-09T04:54:45.057Z,39.76
2019-03-09T04:55:21.262Z,39.81
2019-03-09T04:55:57.559Z,40.21
2019-03-09T04:56:33.818Z,40.10
2019-03-09T04:57:10.074Z,40.08
2019-03-09T04:57:46.325Z,40.06
2019-03-09T04:58:22.526Z,39.96
2019-03-09T04:58:58.600Z,39.83
2019-03-09T04:59:34.746Z,39.70
2019-03-09T05:00:11.274Z,39.67
2019-03-09T05:00:47.925Z,39.62
2019-03-09T05:01:24.165Z,39.66
2019-03-09T05:02:00.252Z,39.68
2019-03-09T05:02:36.355Z,39.64
2019-03-09T05:03:12.489Z,39.50
2019-03-09T05:03:56.179Z,39.39
2019-03-09T05:04:52.304Z,39.31
2019-03-09T05:05:28.479Z,39.11
2019-03-09T05:06:04.976Z,39.16
2019-03-09T05:06:41.245Z,39.21
2019-03-09T05:07:35.255Z,39.10
2019-03-09T05:08:43.821Z,39.48
2019-03-09T05:09:46.257Z,39.67
2019-03-09T05:10:35.818Z,39.71
2019-03-09T05:11:24.062Z,39.61
2019-03-09T05:12:00.462Z,39.37
2019-03-09T05:12:36.623Z,39.17
2019-03-09T05:13:16.305Z,39.29
2019-03-09T05:14:08.003Z,39.18
2019-03-09T05:14:43.981Z,39.54
2019-03-09T05:15:20.032Z,39.37
2019-03-09T05:15:56.840Z,39.47
2019-03-09T05:16:33.090Z,39.15
2019-03-09T05:17:09.260Z,38.72
2019-03-09T05:17:45.443Z,38.40
2019-03-09T05:18:21.626Z,38.29
2019-03-09T05:18:57.808Z,38.49
2019-03-09T05:19:33.786Z,38.89
2019-03-09T05:20:10.151Z,38.89
2019-03-09T05:20:46.273Z,38.94
2019-03-09T05:21:22.511Z,38.88
2019-03-09T05:21:59.032Z,38.94
2019-03-09T05:22:35.293Z,38.76
2019-03-09T05:23:11.460Z,38.63
2019-03-09T05:23:47.530Z,38.90
2019-03-09T05:24:23.629Z,38.92
2019-03-09T05:24:59.748Z,38.83
2019-03-09T05:25:35.935Z,38.64
2019-03-09T05:26:12.026Z,38.25
2019-03-09T05:26:48.337Z,38.12
2019-03-09T05:27:24.684Z,37.91
2019-03-09T05:28:00.743Z,37.91
2019-03-09T05:28:36.880Z,38.32
2019-03-09T05:29:13.025Z,38.28
2019-03-09T05:29:49.263Z,38.24
2019-03-09T05:30:44.666Z,38.26
2019-03-09T05:31:20.881Z,38.09
2019-03-09T05:31:57.172Z,38.08
2019-03-09T05:32:33.364Z,38.26
2019-03-09T05:33:09.626Z,38.47
2019-03-09T05:33:45.813Z,38.48
2019-03-09T05:34:22.199Z,38.49
2019-03-09T05:34:58.374Z,38.21
2019-03-09T05:35:34.496Z,38.08
2019-03-09T05:36:13.017Z,38.07
2019-03-09T05:36:50.191Z,38.00
2019-03-09T05:37:26.528Z,38.03
2019-03-09T05:38:03.022Z,38.04
2019-03-09T05:38:39.254Z,37.70
2019-03-09T05:39:15.759Z,37.26
2019-03-09T05:39:51.995Z,37.09
2019-03-09T05:40:28.192Z,37.08
2019-03-09T05:41:05.036Z,37.06
2019-03-09T05:41:41.414Z,37.13
2019-03-09T05:42:17.636Z,37.56
2019-03-09T05:42:53.935Z,37.74
2019-03-09T05:43:30.256Z,37.94
2019-03-09T05:44:06.479Z,38.09
2019-03-09T05:44:43.176Z,38.42
2019-03-09T05:45:19.432Z,39.17
2019-03-09T05:45:55.797Z,39.24
2019-03-09T05:46:32.148Z,39.23
2019-03-09T05:47:08.614Z,39.11
2019-03-09T05:47:44.930Z,38.97
2019-03-09T05:48:21.092Z,39.09
2019-03-09T05:48:57.221Z,39.18
2019-03-09T05:49:33.501Z,39.19
2019-03-09T05:50:10.093Z,39.18
2019-03-09T05:50:46.404Z,39.31
2019-03-09T05:51:22.836Z,39.42
2019-03-09T05:52:32.111Z,39.83
2019-03-09T05:53:19.020Z,40.49
2019-03-09T05:53:55.189Z,40.50
2019-03-09T05:54:31.409Z,40.85
2019-03-09T05:55:13.951Z,40.90
2019-03-09T05:55:50.073Z,40.99
2019-03-09T05:56:26.242Z,41.18
2019-03-09T05:57:02.382Z,41.31
2019-03-09T05:57:38.535Z,41.58
2019-03-09T05:58:14.941Z,41.65
2019-03-09T05:58:51.189Z,41.72
2019-03-09T05:59:27.346Z,41.85
2019-03-09T06:00:03.621Z,42.07
2019-03-09T06:00:40.475Z,42.02
2019-03-09T06:01:16.496Z,41.75
2019-03-09T06:01:52.650Z,41.48
2019-03-09T06:02:28.995Z,41.34
2019-03-09T06:03:05.404Z,41.38
2019-03-09T06:03:41.711Z,41.36
2019-03-09T06:04:17.790Z,41.49
2019-03-09T06:04:54.005Z,41.57
2019-03-09T06:05:37.575Z,41.35
2019-03-09T06:06:20.578Z,41.33
2019-03-09T06:06:56.667Z,41.28
2019-03-09T06:07:32.762Z,41.00
2019-03-09T06:08:09.529Z,41.05
2019-03-09T06:08:45.946Z,41.02
2019-03-09T06:09:22.051Z,41.04
2019-03-09T06:09:58.301Z,41.11
2019-03-09T06:10:34.568Z,41.12
2019-03-09T06:11:10.740Z,40.93
2019-03-09T06:11:46.888Z,40.90
2019-03-09T06:12:23.024Z,40.86
2019-03-09T06:12:59.080Z,40.90
2019-03-09T06:13:35.070Z,40.83
2019-03-09T06:14:11.349Z,40.62
2019-03-09T06:14:47.477Z,40.95
2019-03-09T06:15:23.634Z,40.86
2019-03-09T06:16:00.254Z,40.48
2019-03-09T06:16:36.338Z,40.50
2019-03-09T06:17:12.529Z,40.59
2019-03-09T06:17:48.648Z,40.46
2019-03-09T06:18:24.910Z,40.50
2019-03-09T06:19:00.979Z,40.55
2019-03-09T06:19:37.039Z,40.83
2019-03-09T06:20:13.178Z,40.81
2019-03-09T06:20:49.486Z,40.87
2019-03-09T06:21:25.634Z,40.74
2019-03-09T06:22:01.803Z,40.64
2019-03-09T06:22:37.909Z,40.65
2019-03-09T06:23:14.015Z,40.50
2019-03-09T06:23:50.037Z,40.38
2019-03-09T06:24:26.176Z,40.47
2019-03-09T06:25:02.271Z,40.35
2019-03-09T06:25:38.715Z,40.38
2019-03-09T06:26:14.865Z,40.03
2019-03-09T06:26:50.865Z,39.89
2019-03-09T06:27:26.855Z,40.12
2019-03-09T06:28:03.006Z,40.55
2019-03-09T06:28:39.412Z,40.92
2019-03-09T06:29:15.522Z,41.67
2019-03-09T06:29:52.202Z,41.87
2019-03-09T06:30:28.655Z,42.04
2019-03-09T06:31:04.960Z,41.83
2019-03-09T06:31:41.310Z,41.81
2019-03-09T06:32:52.046Z,41.86
2019-03-09T06:33:30.042Z,41.98
2019-03-09T06:34:07.114Z,41.48
2019-03-09T06:34:43.188Z,41.50
2019-03-09T06:35:19.501Z,41.14
2019-03-09T06:36:59.669Z,41.12
2019-03-09T06:37:35.952Z,40.99
2019-03-09T06:38:38.295Z,40.84
2019-03-09T06:39:25.450Z,40.57
2019-03-09T06:40:01.626Z,40.50
2019-03-09T06:40:37.795Z,40.60
2019-03-09T06:41:16.062Z,41.06
2019-03-09T06:42:37.262Z,41.68
2019-03-09T06:43:13.424Z,41.88
2019-03-09T06:43:50.005Z,42.00
2019-03-09T06:44:26.171Z,41.90
2019-03-09T06:45:02.507Z,41.52
2019-03-09T06:45:38.700Z,41.39
2019-03-09T06:46:14.796Z,41.40
2019-03-09T06:46:51.135Z,41.58
2019-03-09T06:47:27.345Z,41.59
2019-03-09T06:48:03.549Z,41.72
2019-03-09T06:48:40.022Z,41.56
2019-03-09T06:49:16.437Z,41.48
2019-03-09T06:49:52.585Z,41.70
2019-03-09T06:50:28.862Z,41.93
2019-03-09T06:51:05.190Z,41.96
2019-03-09T06:51:41.453Z,41.77
2019-03-09T06:52:20.772Z,41.72
2019-03-09T06:52:56.972Z,41.66
2019-03-09T06:53:33.280Z,41.45
2019-03-09T06:54:09.572Z,41.54
2019-03-09T06:54:45.872Z,41.50
2019-03-09T06:55:22.043Z,41.37
2019-03-09T06:55:58.197Z,41.16
2019-03-09T06:56:34.223Z,41.02
2019-03-09T06:57:14.050Z,41.11
2019-03-09T06:57:48.469Z,41.00
2019-03-09T06:58:24.710Z,40.32
2019-03-09T06:59:00.918Z,40.15
2019-03-09T06:59:37.081Z,40.12
2019-03-09T07:00:39.469Z,40.16
2019-03-09T07:01:25.104Z,40.23
2019-03-09T07:02:01.382Z,40.48
2019-03-09T07:02:37.544Z,40.77
2019-03-09T07:03:13.886Z,40.81
2019-03-09T07:03:50.193Z,41.07
2019-03-09T07:04:26.647Z,41.20
2019-03-09T07:05:02.936Z,41.39
2019-03-09T07:05:39.330Z,41.62
2019-03-09T07:06:15.686Z,41.97
2019-03-09T07:06:51.891Z,42.37
2019-03-09T07:07:28.230Z,42.46
2019-03-09T07:08:04.476Z,42.24
2019-03-09T07:08:40.692Z,41.86
2019-03-09T07:09:16.918Z,41.51
2019-03-09T07:09:53.056Z,41.51
2019-03-09T07:10:29.466Z,41.57
2019-03-09T07:11:05.568Z,41.33
2019-03-09T07:11:41.965Z,41.22
2019-03-09T07:12:18.300Z,41.36
2019-03-09T07:12:55.008Z,41.36
2019-03-09T07:13:31.113Z,41.20
2019-03-09T07:14:41.377Z,41.16
2019-03-09T07:15:22.976Z,40.97
2019-03-09T07:15:59.902Z,41.04
2019-03-09T07:16:35.999Z,41.32
2019-03-09T07:17:12.334Z,41.19
2019-03-09T07:17:48.712Z,40.96
2019-03-09T07:18:27.451Z,41.03
2019-03-09T07:19:03.714Z,41.29
2019-03-09T07:19:40.051Z,41.96
2019-03-09T07:20:16.637Z,42.67
2019-03-09T07:20:52.986Z,42.87
2019-03-09T07:21:29.301Z,42.98
2019-03-09T07:22:05.488Z,43.20
2019-03-09T07:22:41.708Z,43.12
2019-03-09T07:23:18.046Z,43.06
2019-03-09T07:23:54.406Z,42.94
2019-03-09T07:24:30.658Z,42.79
2019-03-09T07:25:07.134Z,42.79
2019-03-09T07:25:43.388Z,42.67
2019-03-09T07:26:20.034Z,42.70
2019-03-09T07:26:56.384Z,42.87
2019-03-09T07:27:32.505Z,43.19
2019-03-09T07:28:10.677Z,43.29
2019-03-09T07:28:47.156Z,43.49
2019-03-09T07:29:23.620Z,43.60
2019-03-09T07:29:59.875Z,43.73
2019-03-09T07:30:36.279Z,43.81
2019-03-09T07:31:15.223Z,43.93
2019-03-09T07:31:51.461Z,44.12
2019-03-09T07:32:28.239Z,44.17
2019-03-09T07:33:04.796Z,44.22
2019-03-09T07:33:41.040Z,44.17
2019-03-09T07:34:26.998Z,43.97
2019-03-09T07:35:03.274Z,43.96
2019-03-09T07:35:39.738Z,44.24
2019-03-09T07:36:16.008Z,44.42
2019-03-09T07:36:52.363Z,44.63
2019-03-09T07:37:28.685Z,44.71
2019-03-09T07:38:05.073Z,44.90
2019-03-09T07:38:41.316Z,45.00
2019-03-09T07:39:17.520Z,45.02
2019-03-09T07:39:53.728Z,45.09
2019-03-09T07:40:29.914Z,45.33
2019-03-09T07:41:06.239Z,45.47
2019-03-09T07:41:42.553Z,45.42
2019-03-09T07:42:20.924Z,45.43
2019-03-09T07:42:56.887Z,45.21
2019-03-09T07:43:33.152Z,45.13
2019-03-09T07:44:09.476Z,45.31
2019-03-09T07:44:45.766Z,45.41
2019-03-09T07:45:22.113Z,45.35
2019-03-09T07:45:58.617Z,45.15
2019-03-09T07:46:35.348Z,44.81
2019-03-09T07:47:11.651Z,44.73
2019-03-09T07:47:48.275Z,44.49
2019-03-09T07:48:24.362Z,43.92
2019-03-09T07:49:00.593Z,43.79
2019-03-09T07:49:36.805Z,43.69
2019-03-09T07:50:13.961Z,43.63
2019-03-09T07:50:50.163Z,43.56
2019-03-09T07:51:26.580Z,43.34
2019-03-09T07:52:02.804Z,42.93
2019-03-09T07:52:39.843Z,42.77
2019-03-09T07:53:16.242Z,42.63
2019-03-09T07:53:52.520Z,42.48
2019-03-09T07:54:28.713Z,42.30
2019-03-09T07:55:04.836Z,41.97
2019-03-09T07:55:41.188Z,41.70
2019-03-09T07:56:17.335Z,41.56
2019-03-09T07:56:53.478Z,41.40
2019-03-09T07:57:29.671Z,41.48
2019-03-09T07:58:07.169Z,41.50
2019-03-09T07:58:43.850Z,41.28
2019-03-09T07:59:19.943Z,41.13
2019-03-09T07:59:56.109Z,40.93
2019-03-09T08:00:32.267Z,40.81
2019-03-09T08:01:08.374Z,40.57
2019-03-09T08:01:44.718Z,40.30
2019-03-09T08:02:22.656Z,39.96
2019-03-09T08:02:58.891Z,39.88
2019-03-09T08:03:35.265Z,39.48
2019-03-09T08:04:11.728Z,39.25
2019-03-09T08:04:48.124Z,39.09
2019-03-09T08:05:24.704Z,39.02
2019-03-09T08:06:01.074Z,38.88